createdAt,value
2023-05-07T00:00:25.503Z,13.10
2023-05-07T00:02:52.264Z,17.00
2023-05-07T00:05:20.193Z,14.00
2023-05-07T00:07:47.914Z,14.50
2023-05-07T00:10:14.857Z,11.80
2023-05-07T00:12:41.892Z,17.40
2023-05-07T00:15:09.991Z,13.70
2023-05-07T00:17:37.150Z,16.60
2023-05-07T00:20:04.823Z,14.50
2023-05-07T00:22:33.284Z,13.70
2023-05-07T00:25:00.218Z,16.40
2023-05-07T00:27:26.999Z,13.50
2023-05-07T00:29:53.708Z,14.00
2023-05-07T00:32:20.740Z,12.50
2023-05-07T00:34:47.592Z,17.20
2023-05-07T00:37:14.375Z,19.30
2023-05-07T00:39:41.154Z,9.80
2023-05-07T00:42:09.140Z,18.80
2023-05-07T00:44:35.862Z,12.60
2023-05-07T00:47:03.614Z,14.80
2023-05-07T00:49:42.301Z,12.30
2023-05-07T00:52:10.620Z,11.20
2023-05-07T00:54:37.399Z,12.60
2023-05-07T00:57:04.955Z,15.50
2023-05-07T00:59:32.857Z,12.60
2023-05-07T01:02:00.477Z,13.80
2023-05-07T01:04:27.573Z,11.40
2023-05-07T01:06:57.746Z,12.00
2023-05-07T01:09:28.017Z,10.30
2023-05-07T01:11:55.012Z,15.00
2023-05-07T01:14:21.796Z,13.10
2023-05-07T01:16:49.406Z,11.40
2023-05-07T01:19:18.311Z,10.80
2023-05-07T01:21:46.855Z,10.90
2023-05-07T01:24:13.881Z,17.10
2023-05-07T01:26:41.064Z,12.30
2023-05-07T01:29:07.936Z,11.00
2023-05-07T01:31:35.692Z,12.70
2023-05-07T01:34:03.269Z,13.20
2023-05-07T01:36:31.327Z,9.00
2023-05-07T01:38:59.102Z,13.90
2023-05-07T01:41:26.007Z,6.30
2023-05-07T01:43:53.211Z,8.40
2023-05-07T01:46:20.010Z,6.20
2023-05-07T01:48:47.192Z,13.40
2023-05-07T01:51:14.285Z,7.10
2023-05-07T01:53:41.795Z,11.40
2023-05-07T01:56:09.053Z,8.20
2023-05-07T01:58:36.877Z,6.20
2023-05-07T02:01:03.644Z,9.90
2023-05-07T02:03:31.801Z,6.50
2023-05-07T02:06:02.678Z,6.20
2023-05-07T02:08:35.556Z,9.30
2023-05-07T02:11:03.298Z,11.60
2023-05-07T02:13:32.467Z,7.30
2023-05-07T02:15:59.216Z,8.40
2023-05-07T02:18:27.826Z,9.10
2023-05-07T02:20:54.867Z,9.70
2023-05-07T02:23:21.760Z,8.70
2023-05-07T02:25:48.767Z,13.30
2023-05-07T02:28:16.432Z,19.20
2023-05-07T02:30:55.855Z,8.80
2023-05-07T02:33:22.813Z,7.20
2023-05-07T02:35:49.733Z,8.00
2023-05-07T02:38:16.507Z,7.60
2023-05-07T02:40:43.882Z,13.70
2023-05-07T02:43:10.740Z,12.80
2023-05-07T02:45:38.845Z,10.30
2023-05-07T02:48:07.416Z,10.40
2023-05-07T02:50:34.282Z,8.70
2023-05-07T02:53:01.273Z,8.00
2023-05-07T02:55:28.276Z,8.10
2023-05-07T02:57:55.107Z,9.50
2023-05-07T03:00:22.817Z,10.00
2023-05-07T03:03:01.219Z,10.90
2023-05-07T03:05:28.118Z,14.10
2023-05-07T03:07:54.879Z,10.10
2023-05-07T03:10:21.591Z,10.40
2023-05-07T03:12:48.374Z,9.70
2023-05-07T03:15:16.340Z,12.10
2023-05-07T03:17:43.243Z,8.00
2023-05-07T03:20:11.443Z,11.80
2023-05-07T03:22:38.700Z,7.70
2023-05-07T03:25:06.509Z,9.20
2023-05-07T03:27:33.310Z,9.40
2023-05-07T03:30:00.518Z,6.90
2023-05-07T03:32:27.294Z,8.50
2023-05-07T03:34:54.279Z,8.10
2023-05-07T03:37:22.736Z,8.20
2023-05-07T03:39:49.798Z,11.80
2023-05-07T03:42:16.951Z,8.30
2023-05-07T03:44:43.652Z,10.50
2023-05-07T03:47:11.342Z,9.20
2023-05-07T03:49:38.713Z,6.60
2023-05-07T03:52:06.446Z,12.60
2023-05-07T03:54:33.368Z,9.80
2023-05-07T03:57:00.506Z,9.20
2023-05-07T03:59:27.507Z,11.00
2023-05-07T04:01:54.320Z,7.90
2023-05-07T04:04:22.753Z,8.80
2023-05-07T04:06:49.632Z,11.00
2023-05-07T04:09:16.430Z,11.90
2023-05-07T04:11:45.081Z,12.60
2023-05-07T04:14:11.937Z,8.50
2023-05-07T04:16:39.248Z,8.10
2023-05-07T04:19:06.829Z,7.90
2023-05-07T04:21:34.137Z,7.40
2023-05-07T04:24:01.132Z,9.60
2023-05-07T04:26:29.457Z,9.50
2023-05-07T04:28:56.469Z,6.70
2023-05-07T04:31:23.330Z,10.20
2023-05-07T04:33:52.602Z,12.40
2023-05-07T04:36:20.022Z,11.90
2023-05-07T04:38:51.383Z,7.50
2023-05-07T04:41:18.653Z,13.10
2023-05-07T04:43:45.688Z,9.60
2023-05-07T04:46:13.245Z,9.00
2023-05-07T04:48:40.359Z,10.50
2023-05-07T04:51:07.802Z,8.90
2023-05-07T04:53:34.648Z,9.20
2023-05-07T04:56:01.409Z,9.50
2023-05-07T04:58:33.217Z,8.10
2023-05-07T05:01:00.416Z,7.50
2023-05-07T05:03:27.375Z,9.10
2023-05-07T05:05:54.480Z,7.80
2023-05-07T05:08:21.910Z,9.00
2023-05-07T05:10:51.005Z,12.10
2023-05-07T05:13:18.654Z,7.80
2023-05-07T05:15:46.689Z,13.10
2023-05-07T05:18:13.749Z,10.20
2023-05-07T05:20:40.711Z,8.20
2023-05-07T05:23:08.889Z,8.60
2023-05-07T05:25:35.961Z,7.60
2023-05-07T05:28:03.224Z,10.60
2023-05-07T05:30:30.908Z,8.50
2023-05-07T05:32:57.874Z,9.00
2023-05-07T05:35:26.932Z,8.80
2023-05-07T05:37:53.663Z,7.90
2023-05-07T05:40:20.399Z,9.90
2023-05-07T05:42:47.680Z,7.60
2023-05-07T05:45:16.415Z,8.50
2023-05-07T05:47:45.810Z,10.60
2023-05-07T05:50:13.014Z,9.00
2023-05-07T05:52:41.985Z,7.50
2023-05-07T05:55:09.981Z,7.10
2023-05-07T05:57:36.944Z,8.90
2023-05-07T06:00:05.039Z,9.30
2023-05-07T06:02:33.090Z,11.00
2023-05-07T06:04:59.983Z,9.00
2023-05-07T06:07:26.938Z,7.30
2023-05-07T06:09:53.689Z,9.60
2023-05-07T06:12:20.658Z,8.30
2023-05-07T06:14:48.604Z,8.10
2023-05-07T06:17:16.938Z,8.90
2023-05-07T06:19:44.836Z,8.80
2023-05-07T06:22:12.120Z,10.60
2023-05-07T06:24:38.886Z,11.20
2023-05-07T06:27:05.807Z,7.50
2023-05-07T06:29:34.529Z,9.60
2023-05-07T06:32:09.622Z,4.50
2023-05-07T06:34:37.013Z,6.20
2023-05-07T06:37:03.832Z,6.10
2023-05-07T06:39:46.121Z,12.30
2023-05-07T06:42:13.364Z,6.50
2023-05-07T06:44:41.958Z,7.50
2023-05-07T06:49:39.815Z,9.10
2023-05-07T06:52:06.947Z,5.40
2023-05-07T06:54:33.838Z,8.60
2023-05-07T06:57:01.731Z,9.00
2023-05-07T06:59:28.558Z,7.30
2023-05-07T07:01:55.787Z,9.50
2023-05-07T07:04:25.170Z,9.60
2023-05-07T07:06:58.732Z,6.70
2023-05-07T07:09:26.055Z,7.00
2023-05-07T07:11:53.273Z,7.10
2023-05-07T07:14:21.369Z,7.60
2023-05-07T07:16:50.390Z,8.00
2023-05-07T07:19:18.123Z,6.30
2023-05-07T07:21:46.032Z,6.40
2023-05-07T07:24:14.687Z,7.60
2023-05-07T07:26:41.442Z,6.90
2023-05-07T07:29:08.471Z,4.30
2023-05-07T07:31:36.012Z,3.10
2023-05-07T07:34:03.061Z,5.30
2023-05-07T07:36:38.989Z,3.50
2023-05-07T07:39:14.162Z,5.90
2023-05-07T07:41:41.638Z,4.20
2023-05-07T07:44:08.643Z,7.50
2023-05-07T07:46:36.809Z,5.70
2023-05-07T07:49:04.015Z,12.00
2023-05-07T07:51:31.638Z,5.60
2023-05-07T07:53:58.968Z,6.90
2023-05-07T07:56:26.296Z,4.10
2023-05-07T07:58:53.150Z,7.40
2023-05-07T08:01:20.263Z,5.10
2023-05-07T08:03:47.297Z,10.30
2023-05-07T08:06:15.280Z,4.30
2023-05-07T08:08:42.615Z,5.50
2023-05-07T08:11:09.457Z,5.80
2023-05-07T08:13:37.217Z,4.50
2023-05-07T08:16:05.233Z,8.10
2023-05-07T08:18:32.762Z,5.70
2023-05-07T08:21:02.105Z,5.50
2023-05-07T08:23:29.278Z,4.20
2023-05-07T08:25:59.074Z,3.50
2023-05-07T08:28:26.234Z,9.50
2023-05-07T08:30:53.248Z,4.90
2023-05-07T08:33:20.229Z,3.40
2023-05-07T08:35:47.040Z,3.20
2023-05-07T08:38:14.307Z,10.20
2023-05-07T08:40:41.994Z,3.30
2023-05-07T08:43:13.776Z,3.30
2023-05-07T08:45:41.011Z,5.20
2023-05-07T08:48:16.596Z,5.20
2023-05-07T08:50:44.224Z,6.40
2023-05-07T08:53:11.334Z,4.70
2023-05-07T08:55:38.483Z,3.90
2023-05-07T08:58:05.286Z,5.80
2023-05-07T09:00:32.413Z,7.00
2023-05-07T09:02:59.771Z,2.90
2023-05-07T09:05:26.935Z,6.80
2023-05-07T09:07:54.701Z,3.00
2023-05-07T09:10:22.512Z,7.60
2023-05-07T09:12:49.781Z,9.30
2023-05-07T09:15:17.235Z,6.00
2023-05-07T09:17:44.626Z,7.60
2023-05-07T09:20:11.898Z,6.10
2023-05-07T09:22:39.422Z,9.60
2023-05-07T09:25:10.597Z,9.70
2023-05-07T09:27:38.466Z,6.40
2023-05-07T09:30:09.183Z,5.60
2023-05-07T09:32:39.118Z,3.50
2023-05-07T09:35:07.129Z,7.80
2023-05-07T09:37:34.576Z,8.70
2023-05-07T09:40:01.685Z,5.50
2023-05-07T09:42:29.070Z,4.10
2023-05-07T09:44:58.315Z,7.60
2023-05-07T09:47:27.220Z,3.30
2023-05-07T09:49:57.153Z,3.90
2023-05-07T09:52:24.079Z,11.70
2023-05-07T09:54:53.981Z,2.70
2023-05-07T09:57:22.361Z,5.00
2023-05-07T09:59:52.103Z,3.00
2023-05-07T10:02:19.384Z,3.30
2023-05-07T10:04:48.443Z,2.60
2023-05-07T10:07:16.129Z,4.90
2023-05-07T10:09:44.878Z,3.90
2023-05-07T10:12:18.664Z,4.90
2023-05-07T10:14:46.519Z,5.80
2023-05-07T10:17:13.598Z,6.00
2023-05-07T10:19:42.288Z,5.40
2023-05-07T10:22:09.575Z,4.70
2023-05-07T10:27:12.349Z,3.90
2023-05-07T10:29:46.940Z,5.90
2023-05-07T10:32:42.127Z,5.10
2023-05-07T10:35:17.735Z,7.40
2023-05-07T10:37:45.876Z,4.60
2023-05-07T10:40:13.522Z,4.00
2023-05-07T10:42:57.193Z,8.40
2023-05-07T10:45:24.856Z,3.60
2023-05-07T10:48:29.738Z,4.10
2023-05-07T10:51:24.297Z,4.70
2023-05-07T10:54:13.030Z,2.50
2023-05-07T10:59:24.148Z,5.80
2023-05-07T11:01:57.357Z,3.70
2023-05-07T11:04:36.020Z,5.40
2023-05-07T11:07:26.137Z,2.30
2023-05-07T11:09:54.618Z,4.80
2023-05-07T11:12:39.785Z,3.80
2023-05-07T11:15:13.239Z,8.30
2023-05-07T11:17:56.974Z,7.20
2023-05-07T11:20:46.969Z,11.60
2023-05-07T11:23:36.060Z,6.60
2023-05-07T11:26:15.539Z,4.70
2023-05-07T11:28:43.297Z,8.90
2023-05-07T11:31:10.936Z,6.10
2023-05-07T11:33:38.782Z,8.60
2023-05-07T11:37:41.168Z,14.00
2023-05-07T11:40:10.414Z,11.70
2023-05-07T11:42:39.036Z,7.70
2023-05-07T11:45:07.077Z,8.30
2023-05-07T11:47:34.284Z,5.10
2023-05-07T11:50:09.690Z,4.30
2023-05-07T11:52:38.711Z,2.40
2023-05-07T11:55:05.969Z,5.70
2023-05-07T11:57:33.931Z,7.10
2023-05-07T12:00:02.764Z,7.10
2023-05-07T12:02:39.823Z,9.00
2023-05-07T12:05:07.270Z,4.70
2023-05-07T12:07:37.324Z,15.00
2023-05-07T12:10:07.766Z,10.90
2023-05-07T12:12:43.258Z,4.80
2023-05-07T12:15:11.319Z,10.10
2023-05-07T12:17:38.663Z,7.70
2023-05-07T12:20:07.243Z,17.90
2023-05-07T12:22:34.030Z,6.90
2023-05-07T12:25:04.239Z,15.60
2023-05-07T12:27:31.688Z,16.40
2023-05-07T12:29:59.062Z,19.50
2023-05-07T12:32:25.891Z,9.60
2023-05-07T12:34:52.626Z,7.80
2023-05-07T12:37:24.573Z,9.00
2023-05-07T12:40:07.449Z,8.40
2023-05-07T12:42:36.472Z,4.60
2023-05-07T12:45:14.523Z,4.00
2023-05-07T12:47:46.196Z,4.60
2023-05-07T12:50:15.280Z,5.30
2023-05-07T12:52:42.156Z,7.60
2023-05-07T12:55:10.097Z,6.40
2023-05-07T12:57:41.295Z,9.50
2023-05-07T13:02:36.019Z,10.10
2023-05-07T13:05:03.833Z,29.50
2023-05-07T13:07:30.967Z,7.60
2023-05-07T13:09:57.844Z,7.60
2023-05-07T13:12:25.550Z,8.60
2023-05-07T13:14:52.292Z,7.40
2023-05-07T13:17:19.862Z,5.50
2023-05-07T13:19:46.789Z,8.20
2023-05-07T13:22:13.524Z,6.20
2023-05-07T13:24:42.795Z,6.20
2023-05-07T13:27:09.583Z,5.10
2023-05-07T13:29:36.740Z,6.70
2023-05-07T13:32:03.629Z,10.00
2023-05-07T13:34:31.015Z,6.30
2023-05-07T13:36:57.754Z,3.50
2023-05-07T13:39:24.557Z,7.80
2023-05-07T13:41:51.294Z,5.00
2023-05-07T13:44:18.187Z,6.20
2023-05-07T13:46:44.894Z,10.30
2023-05-07T13:49:12.316Z,8.60
2023-05-07T13:51:39.130Z,7.70
2023-05-07T13:54:05.913Z,6.00
2023-05-07T13:56:33.512Z,5.90
2023-05-07T13:59:01.029Z,13.80
2023-05-07T14:01:28.324Z,6.90
2023-05-07T14:03:56.323Z,6.40
2023-05-07T14:06:23.108Z,5.90
2023-05-07T14:08:50.089Z,8.00
2023-05-07T14:11:17.247Z,6.40
2023-05-07T14:13:44.024Z,6.40
2023-05-07T14:16:10.935Z,7.50
2023-05-07T14:18:39.635Z,9.90
2023-05-07T14:21:10.830Z,6.30
2023-05-07T14:23:37.752Z,21.70
2023-05-07T14:26:04.703Z,10.30
2023-05-07T14:28:34.310Z,8.60
2023-05-07T14:31:01.257Z,4.70
2023-05-07T14:33:28.096Z,10.30
2023-05-07T14:35:54.886Z,11.10
2023-05-07T14:38:21.879Z,17.90
2023-05-07T14:40:48.651Z,18.50
2023-05-07T14:43:15.407Z,8.00
2023-05-07T14:45:42.193Z,6.00
2023-05-07T14:48:10.446Z,9.30
2023-05-07T14:50:37.846Z,7.60
2023-05-07T14:53:04.955Z,4.60
2023-05-07T14:55:33.389Z,7.20
2023-05-07T14:58:01.116Z,5.20
2023-05-07T15:00:27.839Z,8.40
2023-05-07T15:02:54.808Z,3.90
2023-05-07T15:05:21.681Z,8.40
2023-05-07T15:07:48.457Z,4.20
2023-05-07T15:10:15.335Z,6.40
2023-05-07T15:12:42.184Z,5.70
2023-05-07T15:15:13.069Z,6.40
2023-05-07T15:17:40.099Z,5.10
2023-05-07T15:20:07.823Z,7.80
2023-05-07T15:22:34.833Z,8.50
2023-05-07T15:25:01.666Z,8.30
2023-05-07T15:27:28.713Z,9.10
2023-05-07T15:29:55.864Z,7.00
2023-05-07T15:32:22.659Z,10.40
2023-05-07T15:34:49.522Z,8.90
2023-05-07T15:37:16.542Z,8.30
2023-05-07T15:39:43.338Z,5.80
2023-05-07T15:42:10.144Z,9.10
2023-05-07T15:44:36.839Z,16.10
2023-05-07T15:47:03.667Z,20.90
2023-05-07T15:49:30.742Z,20.70
2023-05-07T15:51:58.187Z,9.50
2023-05-07T15:54:25.401Z,78.40
2023-05-07T15:56:52.244Z,109.30
2023-05-07T15:59:20.200Z,132.60
2023-05-07T16:01:47.017Z,57.10
2023-05-07T16:04:13.828Z,53.00
2023-05-07T16:06:41.165Z,56.30
2023-05-07T16:09:10.275Z,29.80
2023-05-07T16:11:37.052Z,23.60
2023-05-07T16:14:03.801Z,24.90
2023-05-07T16:16:34.837Z,29.80
2023-05-07T16:19:01.742Z,17.80
2023-05-07T16:21:29.538Z,28.70
2023-05-07T16:23:56.283Z,13.90
2023-05-07T16:26:23.003Z,53.70
2023-05-07T16:28:49.833Z,63.20
2023-05-07T16:31:16.714Z,71.70
2023-05-07T16:33:43.450Z,18.10
2023-05-07T16:36:10.397Z,13.60
2023-05-07T16:38:37.215Z,17.50
2023-05-07T16:41:05.724Z,18.20
2023-05-07T16:43:32.881Z,16.30
2023-05-07T16:45:59.794Z,12.10
2023-05-07T16:48:26.568Z,19.30
2023-05-07T16:50:53.253Z,25.90
2023-05-07T16:53:20.577Z,13.80
2023-05-07T16:55:47.404Z,11.40
2023-05-07T16:58:15.380Z,14.30
2023-05-07T17:00:50.550Z,10.30
2023-05-07T17:03:18.640Z,9.30
2023-05-07T17:05:46.743Z,9.20
2023-05-07T17:08:14.064Z,10.50
2023-05-07T17:10:41.386Z,17.70
2023-05-07T17:13:08.229Z,7.70
2023-05-07T17:15:35.173Z,10.00
2023-05-07T17:18:02.115Z,14.70
2023-05-07T17:20:29.027Z,14.50
2023-05-07T17:22:56.113Z,23.70
2023-05-07T17:25:23.430Z,24.70
2023-05-07T17:27:50.366Z,14.40
2023-05-07T17:30:20.567Z,15.70
2023-05-07T17:32:47.316Z,9.90
2023-05-07T17:35:14.142Z,10.90
2023-05-07T17:37:41.678Z,14.90
2023-05-07T17:40:08.843Z,18.10
2023-05-07T17:42:35.745Z,23.80
2023-05-07T17:45:02.524Z,16.90
2023-05-07T17:47:30.067Z,17.10
2023-05-07T17:49:56.892Z,10.50
2023-05-07T17:52:24.405Z,15.00
2023-05-07T17:54:51.227Z,8.60
2023-05-07T17:57:17.970Z,11.10
2023-05-07T17:59:44.813Z,17.20
2023-05-07T18:02:11.624Z,12.30
2023-05-07T18:04:38.384Z,8.50
2023-05-07T18:07:05.231Z,12.50
2023-05-07T18:09:32.180Z,7.20
2023-05-07T18:11:58.910Z,13.60
2023-05-07T18:14:26.256Z,13.40
2023-05-07T18:16:54.186Z,8.10
2023-05-07T18:19:21.425Z,12.00
2023-05-07T18:21:49.140Z,11.00
2023-05-07T18:24:16.219Z,8.20
2023-05-07T18:26:43.023Z,7.60
2023-05-07T18:29:09.734Z,8.20
2023-05-07T18:31:38.063Z,10.60
2023-05-07T18:34:06.307Z,12.80
2023-05-07T18:36:33.247Z,9.90
2023-05-07T18:39:00.063Z,14.10
2023-05-07T18:41:26.868Z,10.50
2023-05-07T18:43:53.653Z,20.70
2023-05-07T18:46:20.669Z,13.00
2023-05-07T18:48:47.615Z,12.30
2023-05-07T18:51:14.374Z,14.00
2023-05-07T18:53:41.878Z,6.80
2023-05-07T18:56:08.850Z,22.00
2023-05-07T18:58:36.018Z,14.50
2023-05-07T19:01:05.731Z,14.50
2023-05-07T19:03:32.490Z,23.50
2023-05-07T19:05:59.518Z,14.10
2023-05-07T19:08:26.436Z,19.40
2023-05-07T19:10:56.442Z,17.10
2023-05-07T19:13:27.476Z,12.80
2023-05-07T19:15:54.818Z,10.40
2023-05-07T19:18:21.770Z,8.50
2023-05-07T19:20:50.010Z,19.20
2023-05-07T19:23:18.731Z,16.70
2023-05-07T19:25:45.588Z,22.60
2023-05-07T19:28:12.390Z,27.70
2023-05-07T19:30:40.418Z,26.80
2023-05-07T19:33:07.318Z,12.00
2023-05-07T19:35:35.462Z,15.40
2023-05-07T19:38:02.613Z,25.30
2023-05-07T19:40:29.574Z,12.40
2023-05-07T19:42:56.346Z,6.00
2023-05-07T19:45:23.138Z,9.80
2023-05-07T19:47:49.997Z,9.30
2023-05-07T19:50:17.104Z,13.80
2023-05-07T19:52:43.930Z,8.80
2023-05-07T19:55:10.786Z,11.40
2023-05-07T19:57:37.719Z,10.50
2023-05-07T20:00:06.734Z,7.00
2023-05-07T20:02:40.075Z,41.30
2023-05-07T20:05:08.578Z,11.30
2023-05-07T20:07:35.860Z,14.80
2023-05-07T20:10:02.884Z,15.30
2023-05-07T20:12:29.719Z,14.00
2023-05-07T20:14:56.496Z,13.90
2023-05-07T20:17:23.254Z,14.10
2023-05-07T20:19:50.290Z,12.90
2023-05-07T20:22:17.098Z,18.20
2023-05-07T20:24:43.896Z,11.40
2023-05-07T20:27:10.898Z,8.60
2023-05-07T20:29:37.689Z,17.00
2023-05-07T20:32:04.848Z,11.20
2023-05-07T20:34:32.565Z,25.10
2023-05-07T20:36:59.621Z,27.70
2023-05-07T20:39:26.453Z,24.30
2023-05-07T20:41:53.497Z,22.10
2023-05-07T20:44:20.330Z,10.50
2023-05-07T20:46:47.773Z,16.90
2023-05-07T20:49:14.972Z,18.30
2023-05-07T20:51:41.801Z,13.30
2023-05-07T20:54:08.826Z,12.90
2023-05-07T20:56:35.690Z,12.40
2023-05-07T20:59:02.438Z,9.40
2023-05-07T21:01:29.654Z,7.40
2023-05-07T21:03:56.721Z,7.10
2023-05-07T21:06:23.586Z,7.80
2023-05-07T21:08:50.363Z,8.30
2023-05-07T21:11:18.155Z,13.20
2023-05-07T21:13:45.169Z,8.20
2023-05-07T21:16:12.086Z,6.90
2023-05-07T21:18:38.994Z,7.20
2023-05-07T21:21:09.756Z,10.20
2023-05-07T21:23:36.890Z,5.90
2023-05-07T21:26:03.950Z,8.70
2023-05-07T21:28:31.018Z,7.70
2023-05-07T21:30:57.804Z,6.40
2023-05-07T21:33:24.580Z,8.20
2023-05-07T21:35:51.292Z,10.10
2023-05-07T21:38:18.994Z,6.60
2023-05-07T21:40:45.984Z,6.40
2023-05-07T21:43:12.808Z,7.80
2023-05-07T21:45:41.023Z,7.30
2023-05-07T21:48:07.946Z,13.60
2023-05-07T21:50:34.878Z,13.50
2023-05-07T21:53:01.703Z,9.10
2023-05-07T21:55:28.536Z,7.10
2023-05-07T21:58:04.946Z,7.70
2023-05-07T22:00:33.212Z,8.90
2023-05-07T22:03:00.386Z,7.70
2023-05-07T22:05:27.660Z,7.70
2023-05-07T22:07:54.387Z,7.60
2023-05-07T22:10:22.996Z,8.20
2023-05-07T22:12:51.123Z,12.70
2023-05-07T22:15:18.085Z,8.40
2023-05-07T22:17:44.995Z,9.30
2023-05-07T22:20:12.306Z,11.30
2023-05-07T22:22:51.854Z,9.10
2023-05-07T22:25:20.228Z,10.50
2023-05-07T22:27:47.103Z,8.10
2023-05-07T22:30:14.240Z,9.50
2023-05-07T22:32:44.692Z,9.40
2023-05-07T22:35:11.696Z,10.90
2023-05-07T22:37:38.531Z,9.40
2023-05-07T22:40:06.392Z,9.90
2023-05-07T22:42:33.212Z,10.90
2023-05-07T22:44:59.970Z,9.90
2023-05-07T22:47:29.415Z,7.60
2023-05-07T22:49:56.258Z,9.50
2023-05-07T22:52:23.011Z,10.80
2023-05-07T22:54:49.811Z,9.40
2023-05-07T22:57:16.647Z,11.90
2023-05-07T22:59:43.486Z,8.40
2023-05-07T23:02:10.474Z,7.30
2023-05-07T23:04:37.346Z,9.70
2023-05-07T23:07:04.207Z,10.40
2023-05-07T23:09:31.229Z,12.40
2023-05-07T23:11:58.036Z,10.20
2023-05-07T23:14:24.814Z,11.20
2023-05-07T23:16:51.625Z,10.00
2023-05-07T23:19:18.871Z,7.70
2023-05-07T23:21:45.790Z,11.50
2023-05-07T23:24:12.634Z,16.90
2023-05-07T23:26:39.409Z,12.30
2023-05-07T23:29:06.264Z,7.80
2023-05-07T23:31:33.212Z,8.90
2023-05-07T23:34:00.134Z,9.60
2023-05-07T23:36:27.160Z,12.20
2023-05-07T23:38:53.925Z,8.30
2023-05-07T23:41:21.145Z,8.60
2023-05-07T23:43:47.867Z,9.40
2023-05-07T23:46:14.636Z,6.90
2023-05-07T23:48:41.485Z,11.70
2023-05-07T23:54:08.147Z,11.30
2023-05-07T23:56:34.871Z,8.70
2023-05-07T23:59:01.613Z,9.40
